sensor_id;sensor_type;location;lat;lon;timestamp;P1;durP1;ratioP1;P2;durP2;ratioP2
1412;SDS011;701;52.526;13.408;2023-04-10T00:02:16;37.30;;;19.70;;
1412;SDS011;701;52.526;13.408;2023-04-10T00:04:41;35.85;;;18.73;;
1412;SDS011;701;52.526;13.408;2023-04-10T00:07:07;38.80;;;19.20;;
1412;SDS011;701;52.526;13.408;2023-04-10T00:09:33;40.87;;;18.43;;
1412;SDS011;701;52.526;13.408;2023-04-10T00:11:59;33.40;;;17.20;;
1412;SDS011;701;52.526;13.408;2023-04-10T00:14:24;37.70;;;17.73;;
1412;SDS011;701;52.526;13.408;2023-04-10T00:16:50;37.25;;;17.23;;
1412;SDS011;701;52.526;13.408;2023-04-10T00:19:16;37.13;;;16.50;;
1412;SDS011;701;52.526;13.408;2023-04-10T00:21:42;33.42;;;17.42;;
1412;SDS011;701;52.526;13.408;2023-04-10T00:24:07;34.27;;;16.67;;
1412;SDS011;701;52.526;13.408;2023-04-10T00:26:34;34.15;;;16.40;;
1412;SDS011;701;52.526;13.408;2023-04-10T00:29:01;33.40;;;15.32;;
1412;SDS011;701;52.526;13.408;2023-04-10T00:31:27;30.05;;;15.98;;
1412;SDS011;701;52.526;13.408;2023-04-10T00:33:53;33.33;;;15.07;;
1412;SDS011;701;52.526;13.408;2023-04-10T00:36:19;32.97;;;15.95;;
1412;SDS011;701;52.526;13.408;2023-04-10T00:38:46;30.55;;;16.13;;
1412;SDS011;701;52.526;13.408;2023-04-10T00:41:12;30.08;;;15.30;;
1412;SDS011;701;52.526;13.408;2023-04-10T00:43:38;32.20;;;15.43;;
1412;SDS011;701;52.526;13.408;2023-04-10T00:46:04;28.23;;;14.90;;
1412;SDS011;701;52.526;13.408;2023-04-10T00:48:32;32.43;;;14.57;;
1412;SDS011;701;52.526;13.408;2023-04-10T00:50:59;31.33;;;14.57;;
1412;SDS011;701;52.526;13.408;2023-04-10T00:53:25;31.75;;;15.00;;
1412;SDS011;701;52.526;13.408;2023-04-10T00:55:51;29.33;;;14.02;;
1412;SDS011;701;52.526;13.408;2023-04-10T00:58:17;38.45;;;14.90;;
1412;SDS011;701;52.526;13.408;2023-04-10T01:00:45;34.57;;;14.80;;
1412;SDS011;701;52.526;13.408;2023-04-10T01:03:11;30.52;;;13.45;;
1412;SDS011;701;52.526;13.408;2023-04-10T01:11:27;32.25;;;13.88;;
1412;SDS011;701;52.526;13.408;2023-04-10T01:25:45;30.45;;;14.82;;
1412;SDS011;701;52.526;13.408;2023-04-10T01:30:48;31.92;;;13.70;;
1412;SDS011;701;52.526;13.408;2023-04-10T01:33:19;31.20;;;15.52;;
1412;SDS011;701;52.526;13.408;2023-04-10T01:35:48;28.27;;;14.30;;
1412;SDS011;701;52.526;13.408;2023-04-10T01:38:18;27.35;;;13.10;;
1412;SDS011;701;52.526;13.408;2023-04-10T01:40:45;31.97;;;14.57;;
1412;SDS011;701;52.526;13.408;2023-04-10T01:43:23;30.35;;;12.88;;
1412;SDS011;701;52.526;13.408;2023-04-10T01:45:50;25.90;;;12.82;;
1412;SDS011;701;52.526;13.408;2023-04-10T01:48:17;26.83;;;13.07;;
1412;SDS011;701;52.526;13.408;2023-04-10T01:50:44;28.63;;;13.60;;
1412;SDS011;701;52.526;13.408;2023-04-10T01:53:11;28.80;;;13.13;;
1412;SDS011;701;52.526;13.408;2023-04-10T01:55:37;25.83;;;12.77;;
1412;SDS011;701;52.526;13.408;2023-04-10T01:58:06;33.47;;;14.43;;
1412;SDS011;701;52.526;13.408;2023-04-10T02:00:39;29.00;;;13.70;;
1412;SDS011;701;52.526;13.408;2023-04-10T02:03:07;25.30;;;12.98;;
1412;SDS011;701;52.526;13.408;2023-04-10T02:05:43;22.90;;;12.20;;
1412;SDS011;701;52.526;13.408;2023-04-10T02:08:35;25.42;;;12.73;;
1412;SDS011;701;52.526;13.408;2023-04-10T02:13:55;31.35;;;13.70;;
1412;SDS011;701;52.526;13.408;2023-04-10T02:16:25;26.55;;;13.48;;
1412;SDS011;701;52.526;13.408;2023-04-10T02:18:53;28.27;;;13.97;;
1412;SDS011;701;52.526;13.408;2023-04-10T02:21:20;30.48;;;14.07;;
1412;SDS011;701;52.526;13.408;2023-04-10T02:23:46;30.38;;;14.30;;
1412;SDS011;701;52.526;13.408;2023-04-10T02:26:14;32.45;;;14.55;;
1412;SDS011;701;52.526;13.408;2023-04-10T02:28:39;30.50;;;14.17;;
1412;SDS011;701;52.526;13.408;2023-04-10T02:31:05;28.55;;;13.98;;
1412;SDS011;701;52.526;13.408;2023-04-10T02:33:32;30.20;;;13.98;;
1412;SDS011;701;52.526;13.408;2023-04-10T02:35:59;36.23;;;16.70;;
1412;SDS011;701;52.526;13.408;2023-04-10T02:38:25;28.50;;;14.25;;
1412;SDS011;701;52.526;13.408;2023-04-10T02:40:51;28.75;;;14.10;;
1412;SDS011;701;52.526;13.408;2023-04-10T02:43:17;29.50;;;14.15;;
1412;SDS011;701;52.526;13.408;2023-04-10T02:45:44;25.73;;;13.57;;
1412;SDS011;701;52.526;13.408;2023-04-10T02:48:15;26.77;;;13.00;;
1412;SDS011;701;52.526;13.408;2023-04-10T02:50:41;30.10;;;14.05;;
1412;SDS011;701;52.526;13.408;2023-04-10T02:53:14;31.10;;;14.73;;
1412;SDS011;701;52.526;13.408;2023-04-10T02:55:40;37.47;;;16.77;;
1412;SDS011;701;52.526;13.408;2023-04-10T02:58:06;37.03;;;17.10;;
1412;SDS011;701;52.526;13.408;2023-04-10T03:00:32;34.53;;;16.77;;
1412;SDS011;701;52.526;13.408;2023-04-10T03:03:04;38.08;;;17.25;;
1412;SDS011;701;52.526;13.408;2023-04-10T03:05:38;36.95;;;17.73;;
1412;SDS011;701;52.526;13.408;2023-04-10T03:08:04;38.47;;;17.50;;
1412;SDS011;701;52.526;13.408;2023-04-10T03:10:30;39.75;;;18.02;;
1412;SDS011;701;52.526;13.408;2023-04-10T03:12:56;39.15;;;17.55;;
1412;SDS011;701;52.526;13.408;2023-04-10T03:15:22;37.90;;;18.30;;
1412;SDS011;701;52.526;13.408;2023-04-10T03:17:48;38.05;;;17.35;;
1412;SDS011;701;52.526;13.408;2023-04-10T03:20:14;39.63;;;17.83;;
1412;SDS011;701;52.526;13.408;2023-04-10T03:22:40;40.08;;;18.23;;
1412;SDS011;701;52.526;13.408;2023-04-10T03:25:07;39.63;;;16.15;;
1412;SDS011;701;52.526;13.408;2023-04-10T03:27:33;38.10;;;17.65;;
1412;SDS011;701;52.526;13.408;2023-04-10T03:30:00;40.13;;;17.87;;
1412;SDS011;701;52.526;13.408;2023-04-10T03:32:28;33.97;;;16.67;;
1412;SDS011;701;52.526;13.408;2023-04-10T03:34:56;39.85;;;17.83;;
1412;SDS011;701;52.526;13.408;2023-04-10T03:37:23;38.33;;;17.25;;
1412;SDS011;701;52.526;13.408;2023-04-10T03:39:49;32.70;;;15.52;;
1412;SDS011;701;52.526;13.408;2023-04-10T03:42:15;39.50;;;18.33;;
1412;SDS011;701;52.526;13.408;2023-04-10T03:44:41;36.97;;;15.75;;
1412;SDS011;701;52.526;13.408;2023-04-10T03:47:07;30.55;;;16.52;;
1412;SDS011;701;52.526;13.408;2023-04-10T03:49:33;36.13;;;16.90;;
1412;SDS011;701;52.526;13.408;2023-04-10T03:52:03;34.15;;;15.77;;
1412;SDS011;701;52.526;13.408;2023-04-10T03:54:30;39.42;;;16.77;;
1412;SDS011;701;52.526;13.408;2023-04-10T03:56:56;33.90;;;16.38;;
1412;SDS011;701;52.526;13.408;2023-04-10T03:59:22;33.47;;;16.40;;
1412;SDS011;701;52.526;13.408;2023-04-10T04:01:48;33.35;;;15.63;;
1412;SDS011;701;52.526;13.408;2023-04-10T04:04:14;33.22;;;17.48;;
1412;SDS011;701;52.526;13.408;2023-04-10T04:06:42;36.72;;;16.50;;
1412;SDS011;701;52.526;13.408;2023-04-10T04:09:25;39.03;;;17.75;;
1412;SDS011;701;52.526;13.408;2023-04-10T04:12:20;38.70;;;17.67;;
1412;SDS011;701;52.526;13.408;2023-04-10T04:14:58;37.15;;;17.30;;
1412;SDS011;701;52.526;13.408;2023-04-10T04:17:36;31.75;;;16.00;;
1412;SDS011;701;52.526;13.408;2023-04-10T04:20:04;37.78;;;17.27;;
1412;SDS011;701;52.526;13.408;2023-04-10T04:22:40;35.63;;;16.08;;
1412;SDS011;701;52.526;13.408;2023-04-10T04:25:31;37.33;;;15.50;;
1412;SDS011;701;52.526;13.408;2023-04-10T04:28:04;33.90;;;15.70;;
1412;SDS011;701;52.526;13.408;2023-04-10T04:30:30;38.00;;;16.13;;
1412;SDS011;701;52.526;13.408;2023-04-10T04:33:34;29.93;;;16.03;;
1412;SDS011;701;52.526;13.408;2023-04-10T04:36:20;35.67;;;15.60;;
1412;SDS011;701;52.526;13.408;2023-04-10T04:39:18;34.35;;;15.95;;
1412;SDS011;701;52.526;13.408;2023-04-10T04:42:04;30.58;;;15.77;;
1412;SDS011;701;52.526;13.408;2023-04-10T04:44:45;33.22;;;15.15;;
1412;SDS011;701;52.526;13.408;2023-04-10T04:47:31;33.90;;;15.00;;
1412;SDS011;701;52.526;13.408;2023-04-10T04:50:19;38.83;;;15.80;;
1412;SDS011;701;52.526;13.408;2023-04-10T04:52:56;37.15;;;16.55;;
1412;SDS011;701;52.526;13.408;2023-04-10T04:55:33;38.10;;;16.40;;
1412;SDS011;701;52.526;13.408;2023-04-10T04:58:14;34.47;;;16.15;;
1412;SDS011;701;52.526;13.408;2023-04-10T05:00:55;36.63;;;16.23;;
1412;SDS011;701;52.526;13.408;2023-04-10T05:03:30;38.33;;;16.80;;
1412;SDS011;701;52.526;13.408;2023-04-10T05:06:11;34.47;;;16.30;;
1412;SDS011;701;52.526;13.408;2023-04-10T05:09:07;34.70;;;16.23;;
1412;SDS011;701;52.526;13.408;2023-04-10T05:12:01;32.05;;;15.93;;
1412;SDS011;701;52.526;13.408;2023-04-10T05:15:00;31.47;;;14.33;;
1412;SDS011;701;52.526;13.408;2023-04-10T05:17:31;32.60;;;15.60;;
1412;SDS011;701;52.526;13.408;2023-04-10T05:20:15;32.30;;;15.82;;
1412;SDS011;701;52.526;13.408;2023-04-10T05:23:05;33.05;;;15.68;;
1412;SDS011;701;52.526;13.408;2023-04-10T05:25:51;35.60;;;15.70;;
1412;SDS011;701;52.526;13.408;2023-04-10T05:28:37;33.83;;;15.50;;
1412;SDS011;701;52.526;13.408;2023-04-10T05:31:22;32.15;;;15.70;;
1412;SDS011;701;52.526;13.408;2023-04-10T05:34:26;35.28;;;14.90;;
1412;SDS011;701;52.526;13.408;2023-04-10T05:37:20;33.30;;;15.27;;
1412;SDS011;701;52.526;13.408;2023-04-10T05:39:55;30.92;;;15.85;;
1412;SDS011;701;52.526;13.408;2023-04-10T05:42:30;29.20;;;14.67;;
1412;SDS011;701;52.526;13.408;2023-04-10T05:45:25;31.27;;;15.23;;
1412;SDS011;701;52.526;13.408;2023-04-10T05:48:04;28.15;;;14.00;;
1412;SDS011;701;52.526;13.408;2023-04-10T05:50:39;31.33;;;14.50;;
1412;SDS011;701;52.526;13.408;2023-04-10T05:53:31;29.25;;;14.98;;
1412;SDS011;701;52.526;13.408;2023-04-10T05:56:00;30.43;;;14.47;;
1412;SDS011;701;52.526;13.408;2023-04-10T05:59:01;33.63;;;14.38;;
1412;SDS011;701;52.526;13.408;2023-04-10T06:01:50;29.17;;;13.60;;
1412;SDS011;701;52.526;13.408;2023-04-10T06:04:16;31.40;;;13.98;;
1412;SDS011;701;52.526;13.408;2023-04-10T06:06:43;24.23;;;12.87;;
1412;SDS011;701;52.526;13.408;2023-04-10T06:09:09;28.33;;;13.38;;
1412;SDS011;701;52.526;13.408;2023-04-10T06:11:35;31.60;;;13.77;;
1412;SDS011;701;52.526;13.408;2023-04-10T06:14:01;24.77;;;13.27;;
1412;SDS011;701;52.526;13.408;2023-04-10T06:16:40;25.27;;;13.15;;
1412;SDS011;701;52.526;13.408;2023-04-10T06:19:07;28.77;;;14.18;;
1412;SDS011;701;52.526;13.408;2023-04-10T06:21:34;26.98;;;13.55;;
1412;SDS011;701;52.526;13.408;2023-04-10T06:24:00;27.83;;;14.10;;
1412;SDS011;701;52.526;13.408;2023-04-10T06:26:26;26.92;;;13.75;;
1412;SDS011;701;52.526;13.408;2023-04-10T06:28:52;27.15;;;13.65;;
1412;SDS011;701;52.526;13.408;2023-04-10T06:31:18;28.40;;;13.97;;
1412;SDS011;701;52.526;13.408;2023-04-10T06:33:47;31.35;;;14.10;;
1412;SDS011;701;52.526;13.408;2023-04-10T06:36:13;23.58;;;13.10;;
1412;SDS011;701;52.526;13.408;2023-04-10T06:38:45;27.27;;;12.95;;
1412;SDS011;701;52.526;13.408;2023-04-10T06:41:11;25.77;;;13.48;;
1412;SDS011;701;52.526;13.408;2023-04-10T06:43:37;25.03;;;13.00;;
1412;SDS011;701;52.526;13.408;2023-04-10T06:46:04;24.20;;;13.02;;
1412;SDS011;701;52.526;13.408;2023-04-10T06:48:30;25.15;;;13.98;;
1412;SDS011;701;52.526;13.408;2023-04-10T06:50:57;24.48;;;14.18;;
1412;SDS011;701;52.526;13.408;2023-04-10T06:53:25;30.33;;;15.10;;
1412;SDS011;701;52.526;13.408;2023-04-10T06:55:51;27.20;;;14.32;;
1412;SDS011;701;52.526;13.408;2023-04-10T06:58:17;30.88;;;15.30;;
1412;SDS011;701;52.526;13.408;2023-04-10T07:00:43;29.40;;;15.80;;
1412;SDS011;701;52.526;13.408;2023-04-10T07:03:08;28.77;;;15.73;;
1412;SDS011;701;52.526;13.408;2023-04-10T07:05:34;32.33;;;15.52;;
1412;SDS011;701;52.526;13.408;2023-04-10T07:08:00;32.45;;;16.77;;
1412;SDS011;701;52.526;13.408;2023-04-10T07:10:26;29.95;;;16.50;;
1412;SDS011;701;52.526;13.408;2023-04-10T07:12:51;36.87;;;18.03;;
1412;SDS011;701;52.526;13.408;2023-04-10T07:15:17;33.55;;;18.17;;
1412;SDS011;701;52.526;13.408;2023-04-10T07:17:43;34.03;;;18.70;;
1412;SDS011;701;52.526;13.408;2023-04-10T07:20:09;36.47;;;19.58;;
1412;SDS011;701;52.526;13.408;2023-04-10T07:22:35;32.33;;;18.13;;
1412;SDS011;701;52.526;13.408;2023-04-10T07:25:01;36.63;;;19.83;;
1412;SDS011;701;52.526;13.408;2023-04-10T07:27:27;37.92;;;20.15;;
1412;SDS011;701;52.526;13.408;2023-04-10T07:29:53;39.50;;;20.73;;
1412;SDS011;701;52.526;13.408;2023-04-10T07:32:20;37.40;;;20.65;;
1412;SDS011;701;52.526;13.408;2023-04-10T07:34:46;34.72;;;20.38;;
1412;SDS011;701;52.526;13.408;2023-04-10T07:37:12;34.78;;;19.88;;
1412;SDS011;701;52.526;13.408;2023-04-10T07:39:38;39.38;;;19.48;;
1412;SDS011;701;52.526;13.408;2023-04-10T07:42:04;34.57;;;19.27;;
1412;SDS011;701;52.526;13.408;2023-04-10T07:44:30;40.50;;;20.27;;
1412;SDS011;701;52.526;13.408;2023-04-10T07:46:56;34.28;;;19.88;;
1412;SDS011;701;52.526;13.408;2023-04-10T07:49:23;38.45;;;20.83;;
1412;SDS011;701;52.526;13.408;2023-04-10T07:51:49;44.95;;;21.50;;
1412;SDS011;701;52.526;13.408;2023-04-10T07:54:14;39.25;;;22.42;;
1412;SDS011;701;52.526;13.408;2023-04-10T07:56:40;39.80;;;20.43;;
1412;SDS011;701;52.526;13.408;2023-04-10T07:59:06;38.95;;;20.92;;
1412;SDS011;701;52.526;13.408;2023-04-10T08:01:32;40.47;;;20.77;;
1412;SDS011;701;52.526;13.408;2023-04-10T08:03:58;33.93;;;21.73;;
1412;SDS011;701;52.526;13.408;2023-04-10T08:06:23;36.92;;;20.77;;
1412;SDS011;701;52.526;13.408;2023-04-10T08:08:50;36.17;;;20.35;;
1412;SDS011;701;52.526;13.408;2023-04-10T08:11:23;34.80;;;19.90;;
1412;SDS011;701;52.526;13.408;2023-04-10T08:13:49;33.03;;;20.50;;
1412;SDS011;701;52.526;13.408;2023-04-10T08:16:26;37.20;;;21.65;;
1412;SDS011;701;52.526;13.408;2023-04-10T08:18:56;35.28;;;21.15;;
1412;SDS011;701;52.526;13.408;2023-04-10T08:21:23;37.67;;;21.70;;
1412;SDS011;701;52.526;13.408;2023-04-10T08:23:51;32.60;;;20.43;;
1412;SDS011;701;52.526;13.408;2023-04-10T08:26:18;33.70;;;20.80;;
1412;SDS011;701;52.526;13.408;2023-04-10T08:28:48;34.15;;;21.23;;
1412;SDS011;701;52.526;13.408;2023-04-10T08:31:19;35.30;;;21.60;;
1412;SDS011;701;52.526;13.408;2023-04-10T08:33:46;33.03;;;21.15;;
1412;SDS011;701;52.526;13.408;2023-04-10T08:36:13;30.77;;;20.27;;
1412;SDS011;701;52.526;13.408;2023-04-10T08:38:40;29.63;;;19.63;;
1412;SDS011;701;52.526;13.408;2023-04-10T08:41:09;29.08;;;18.73;;
1412;SDS011;701;52.526;13.408;2023-04-10T08:43:36;32.58;;;19.20;;
1412;SDS011;701;52.526;13.408;2023-04-10T08:46:02;29.70;;;19.67;;
1412;SDS011;701;52.526;13.408;2023-04-10T08:48:34;31.83;;;20.57;;
1412;SDS011;701;52.526;13.408;2023-04-10T08:51:04;27.70;;;19.10;;
1412;SDS011;701;52.526;13.408;2023-04-10T08:53:33;28.10;;;18.63;;
1412;SDS011;701;52.526;13.408;2023-04-10T08:56:05;29.05;;;19.05;;
1412;SDS011;701;52.526;13.408;2023-04-10T08:58:32;33.53;;;19.97;;
1412;SDS011;701;52.526;13.408;2023-04-10T09:00:58;29.73;;;19.15;;
1412;SDS011;701;52.526;13.408;2023-04-10T09:03:26;26.80;;;18.27;;
1412;SDS011;701;52.526;13.408;2023-04-10T09:05:52;29.40;;;20.48;;
1412;SDS011;701;52.526;13.408;2023-04-10T09:08:18;28.07;;;20.57;;
1412;SDS011;701;52.526;13.408;2023-04-10T09:10:44;26.48;;;19.20;;
1412;SDS011;701;52.526;13.408;2023-04-10T09:13:10;27.33;;;19.10;;
1412;SDS011;701;52.526;13.408;2023-04-10T09:15:54;23.55;;;17.00;;
1412;SDS011;701;52.526;13.408;2023-04-10T09:18:22;23.38;;;15.13;;
1412;SDS011;701;52.526;13.408;2023-04-10T09:21:12;22.23;;;15.30;;
1412;SDS011;701;52.526;13.408;2023-04-10T09:23:40;23.83;;;15.68;;
1412;SDS011;701;52.526;13.408;2023-04-10T09:26:26;22.30;;;14.85;;
1412;SDS011;701;52.526;13.408;2023-04-10T09:31:29;24.58;;;14.68;;
1412;SDS011;701;52.526;13.408;2023-04-10T09:36:54;20.45;;;13.82;;
1412;SDS011;701;52.526;13.408;2023-04-10T09:39:25;19.15;;;12.77;;
1412;SDS011;701;52.526;13.408;2023-04-10T09:41:57;20.77;;;13.68;;
1412;SDS011;701;52.526;13.408;2023-04-10T09:44:33;21.37;;;13.43;;
1412;SDS011;701;52.526;13.408;2023-04-10T09:52:29;19.85;;;12.45;;
1412;SDS011;701;52.526;13.408;2023-04-10T09:55:04;20.70;;;12.60;;
1412;SDS011;701;52.526;13.408;2023-04-10T09:57:32;21.63;;;12.47;;
1412;SDS011;701;52.526;13.408;2023-04-10T09:59:59;21.23;;;12.98;;
1412;SDS011;701;52.526;13.408;2023-04-10T10:02:35;22.92;;;13.15;;
1412;SDS011;701;52.526;13.408;2023-04-10T10:05:05;20.15;;;13.25;;
1412;SDS011;701;52.526;13.408;2023-04-10T10:07:31;21.63;;;13.10;;
1412;SDS011;701;52.526;13.408;2023-04-10T10:09:57;22.27;;;12.33;;
1412;SDS011;701;52.526;13.408;2023-04-10T10:12:34;24.75;;;13.15;;
1412;SDS011;701;52.526;13.408;2023-04-10T10:20:20;21.30;;;13.00;;
1412;SDS011;701;52.526;13.408;2023-04-10T10:22:48;23.33;;;13.47;;
1412;SDS011;701;52.526;13.408;2023-04-10T10:25:14;20.85;;;13.27;;
1412;SDS011;701;52.526;13.408;2023-04-10T10:27:40;22.25;;;12.88;;
1412;SDS011;701;52.526;13.408;2023-04-10T10:30:06;22.50;;;13.32;;
1412;SDS011;701;52.526;13.408;2023-04-10T10:32:34;18.67;;;11.55;;
1412;SDS011;701;52.526;13.408;2023-04-10T10:35:01;20.43;;;12.20;;
1412;SDS011;701;52.526;13.408;2023-04-10T10:37:28;20.35;;;11.55;;
1412;SDS011;701;52.526;13.408;2023-04-10T10:45:16;17.25;;;10.57;;
1412;SDS011;701;52.526;13.408;2023-04-10T10:47:52;19.80;;;11.03;;
1412;SDS011;701;52.526;13.408;2023-04-10T10:50:19;17.65;;;10.15;;
1412;SDS011;701;52.526;13.408;2023-04-10T10:52:50;15.73;;;9.50;;
1412;SDS011;701;52.526;13.408;2023-04-10T10:57:48;15.95;;;9.30;;
1412;SDS011;701;52.526;13.408;2023-04-10T11:00:16;13.93;;;8.73;;
1412;SDS011;701;52.526;13.408;2023-04-10T11:02:43;15.57;;;9.00;;
1412;SDS011;701;52.526;13.408;2023-04-10T11:05:09;19.00;;;9.02;;
1412;SDS011;701;52.526;13.408;2023-04-10T11:10:57;13.13;;;7.25;;
1412;SDS011;701;52.526;13.408;2023-04-10T11:13:32;12.83;;;7.83;;
1412;SDS011;701;52.526;13.408;2023-04-10T11:16:03;14.75;;;7.35;;
1412;SDS011;701;52.526;13.408;2023-04-10T11:21:13;12.93;;;7.32;;
1412;SDS011;701;52.526;13.408;2023-04-10T11:28:58;11.52;;;6.20;;
1412;SDS011;701;52.526;13.408;2023-04-10T11:31:25;13.77;;;6.53;;
1412;SDS011;701;52.526;13.408;2023-04-10T11:36:20;13.00;;;7.10;;
1412;SDS011;701;52.526;13.408;2023-04-10T11:38:56;13.97;;;6.87;;
1412;SDS011;701;52.526;13.408;2023-04-10T11:41:25;14.40;;;8.05;;
1412;SDS011;701;52.526;13.408;2023-04-10T11:43:55;13.00;;;7.18;;
1412;SDS011;701;52.526;13.408;2023-04-10T11:46:21;13.93;;;7.43;;
1412;SDS011;701;52.526;13.408;2023-04-10T11:48:51;14.68;;;6.95;;
1412;SDS011;701;52.526;13.408;2023-04-10T11:51:20;12.25;;;7.43;;
1412;SDS011;701;52.526;13.408;2023-04-10T11:53:47;12.75;;;7.38;;
1412;SDS011;701;52.526;13.408;2023-04-10T11:56:16;18.63;;;7.77;;
1412;SDS011;701;52.526;13.408;2023-04-10T11:58:44;14.32;;;7.78;;
1412;SDS011;701;52.526;13.408;2023-04-10T12:01:11;16.27;;;7.90;;
1412;SDS011;701;52.526;13.408;2023-04-10T12:03:39;15.95;;;7.38;;
1412;SDS011;701;52.526;13.408;2023-04-10T12:06:11;13.65;;;7.60;;
1412;SDS011;701;52.526;13.408;2023-04-10T12:08:43;15.03;;;7.97;;
1412;SDS011;701;52.526;13.408;2023-04-10T12:11:11;13.65;;;7.80;;
1412;SDS011;701;52.526;13.408;2023-04-10T12:13:38;14.63;;;7.78;;
1412;SDS011;701;52.526;13.408;2023-04-10T12:16:08;11.98;;;6.75;;
1412;SDS011;701;52.526;13.408;2023-04-10T12:18:35;11.55;;;6.20;;
1412;SDS011;701;52.526;13.408;2023-04-10T12:21:01;13.07;;;7.37;;
1412;SDS011;701;52.526;13.408;2023-04-10T12:23:28;14.70;;;7.35;;
1412;SDS011;701;52.526;13.408;2023-04-10T12:28:34;11.90;;;5.90;;
1412;SDS011;701;52.526;13.408;2023-04-10T12:31:00;12.02;;;6.45;;
1412;SDS011;701;52.526;13.408;2023-04-10T12:33:27;12.10;;;6.10;;
1412;SDS011;701;52.526;13.408;2023-04-10T12:35:53;12.63;;;5.97;;
1412;SDS011;701;52.526;13.408;2023-04-10T12:41:06;11.88;;;5.90;;
1412;SDS011;701;52.526;13.408;2023-04-10T12:43:33;13.43;;;6.40;;
1412;SDS011;701;52.526;13.408;2023-04-10T12:46:04;10.63;;;6.00;;
1412;SDS011;701;52.526;13.408;2023-04-10T12:48:31;10.90;;;5.82;;
1412;SDS011;701;52.526;13.408;2023-04-10T12:50:57;16.25;;;6.22;;
1412;SDS011;701;52.526;13.408;2023-04-10T12:53:23;11.27;;;5.93;;
1412;SDS011;701;52.526;13.408;2023-04-10T12:56:00;15.00;;;6.60;;
1412;SDS011;701;52.526;13.408;2023-04-10T12:58:30;12.57;;;5.70;;
1412;SDS011;701;52.526;13.408;2023-04-10T13:01:03;11.05;;;5.93;;
1412;SDS011;701;52.526;13.408;2023-04-10T13:03:32;14.90;;;5.50;;
1412;SDS011;701;52.526;13.408;2023-04-10T13:05:58;13.88;;;7.18;;
1412;SDS011;701;52.526;13.408;2023-04-10T13:08:24;11.80;;;6.17;;
1412;SDS011;701;52.526;13.408;2023-04-10T13:10:50;17.42;;;6.88;;
1412;SDS011;701;52.526;13.408;2023-04-10T13:13:16;13.50;;;6.70;;
1412;SDS011;701;52.526;13.408;2023-04-10T13:15:42;14.33;;;6.70;;
1412;SDS011;701;52.526;13.408;2023-04-10T13:18:08;12.05;;;6.75;;
1412;SDS011;701;52.526;13.408;2023-04-10T13:20:37;11.73;;;6.70;;
1412;SDS011;701;52.526;13.408;2023-04-10T13:23:05;13.35;;;7.22;;
1412;SDS011;701;52.526;13.408;2023-04-10T13:25:31;12.80;;;6.93;;
1412;SDS011;701;52.526;13.408;2023-04-10T13:27:59;13.70;;;7.20;;
1412;SDS011;701;52.526;13.408;2023-04-10T13:30:26;12.00;;;6.55;;
1412;SDS011;701;52.526;13.408;2023-04-10T13:32:52;13.27;;;6.80;;
1412;SDS011;701;52.526;13.408;2023-04-10T13:35:18;14.40;;;7.10;;
1412;SDS011;701;52.526;13.408;2023-04-10T13:37:44;15.47;;;6.67;;
1412;SDS011;701;52.526;13.408;2023-04-10T13:40:10;15.65;;;6.97;;
1412;SDS011;701;52.526;13.408;2023-04-10T13:42:36;16.55;;;6.45;;
1412;SDS011;701;52.526;13.408;2023-04-10T13:45:02;15.00;;;6.80;;
1412;SDS011;701;52.526;13.408;2023-04-10T13:47:28;15.45;;;6.85;;
1412;SDS011;701;52.526;13.408;2023-04-10T13:49:53;16.70;;;6.53;;
1412;SDS011;701;52.526;13.408;2023-04-10T13:52:19;15.27;;;7.00;;
1412;SDS011;701;52.526;13.408;2023-04-10T13:54:45;15.33;;;6.57;;
1412;SDS011;701;52.526;13.408;2023-04-10T13:57:11;11.88;;;6.22;;
1412;SDS011;701;52.526;13.408;2023-04-10T13:59:36;15.18;;;6.55;;
1412;SDS011;701;52.526;13.408;2023-04-10T14:02:02;13.60;;;6.20;;
1412;SDS011;701;52.526;13.408;2023-04-10T14:04:28;12.70;;;6.60;;
1412;SDS011;701;52.526;13.408;2023-04-10T14:06:54;11.87;;;6.07;;
1412;SDS011;701;52.526;13.408;2023-04-10T14:09:22;12.73;;;6.32;;
1412;SDS011;701;52.526;13.408;2023-04-10T14:11:48;12.88;;;5.80;;
1412;SDS011;701;52.526;13.408;2023-04-10T14:14:14;11.30;;;6.63;;
1412;SDS011;701;52.526;13.408;2023-04-10T14:16:40;14.15;;;5.90;;
1412;SDS011;701;52.526;13.408;2023-04-10T14:19:05;16.30;;;6.00;;
1412;SDS011;701;52.526;13.408;2023-04-10T14:21:31;13.88;;;6.60;;
1412;SDS011;701;52.526;13.408;2023-04-10T14:23:57;11.80;;;6.10;;
1412;SDS011;701;52.526;13.408;2023-04-10T14:26:23;11.75;;;5.93;;
1412;SDS011;701;52.526;13.408;2023-04-10T14:28:50;16.42;;;6.22;;
1412;SDS011;701;52.526;13.408;2023-04-10T14:31:16;11.90;;;5.78;;
1412;SDS011;701;52.526;13.408;2023-04-10T14:33:42;11.67;;;6.13;;
1412;SDS011;701;52.526;13.408;2023-04-10T14:36:08;10.75;;;5.72;;
1412;SDS011;701;52.526;13.408;2023-04-10T14:38:42;13.00;;;5.95;;
1412;SDS011;701;52.526;13.408;2023-04-10T14:41:07;12.13;;;6.27;;
1412;SDS011;701;52.526;13.408;2023-04-10T14:43:33;12.95;;;6.57;;
1412;SDS011;701;52.526;13.408;2023-04-10T14:45:59;14.30;;;6.83;;
1412;SDS011;701;52.526;13.408;2023-04-10T14:48:25;14.07;;;6.88;;
1412;SDS011;701;52.526;13.408;2023-04-10T14:50:50;13.67;;;6.63;;
1412;SDS011;701;52.526;13.408;2023-04-10T14:53:16;16.65;;;6.88;;
1412;SDS011;701;52.526;13.408;2023-04-10T14:55:42;17.63;;;7.07;;
1412;SDS011;701;52.526;13.408;2023-04-10T14:58:08;14.05;;;6.75;;
1412;SDS011;701;52.526;13.408;2023-04-10T15:00:35;12.48;;;7.03;;
1412;SDS011;701;52.526;13.408;2023-04-10T15:03:00;16.50;;;7.40;;
1412;SDS011;701;52.526;13.408;2023-04-10T15:05:26;13.05;;;7.13;;
1412;SDS011;701;52.526;13.408;2023-04-10T15:07:52;12.43;;;6.90;;
1412;SDS011;701;52.526;13.408;2023-04-10T15:10:18;13.57;;;6.68;;
1412;SDS011;701;52.526;13.408;2023-04-10T15:12:44;13.82;;;7.20;;
1412;SDS011;701;52.526;13.408;2023-04-10T15:15:10;12.60;;;7.13;;
1412;SDS011;701;52.526;13.408;2023-04-10T15:17:36;12.73;;;7.20;;
1412;SDS011;701;52.526;13.408;2023-04-10T15:20:01;12.95;;;6.80;;
1412;SDS011;701;52.526;13.408;2023-04-10T15:22:29;16.10;;;7.33;;
1412;SDS011;701;52.526;13.408;2023-04-10T15:24:55;11.68;;;7.25;;
1412;SDS011;701;52.526;13.408;2023-04-10T15:27:20;11.65;;;7.35;;
1412;SDS011;701;52.526;13.408;2023-04-10T15:29:46;12.73;;;7.50;;
1412;SDS011;701;52.526;13.408;2023-04-10T15:32:12;12.30;;;7.30;;
1412;SDS011;701;52.526;13.408;2023-04-10T15:34:38;12.53;;;6.90;;
1412;SDS011;701;52.526;13.408;2023-04-10T15:37:04;13.65;;;7.50;;
1412;SDS011;701;52.526;13.408;2023-04-10T15:39:29;11.80;;;7.00;;
1412;SDS011;701;52.526;13.408;2023-04-10T15:41:55;12.53;;;6.97;;
1412;SDS011;701;52.526;13.408;2023-04-10T15:44:22;11.80;;;7.20;;
1412;SDS011;701;52.526;13.408;2023-04-10T15:46:49;11.82;;;6.88;;
1412;SDS011;701;52.526;13.408;2023-04-10T15:49:15;11.13;;;7.00;;
1412;SDS011;701;52.526;13.408;2023-04-10T15:51:41;14.48;;;7.35;;
1412;SDS011;701;52.526;13.408;2023-04-10T15:54:07;11.55;;;6.53;;
1412;SDS011;701;52.526;13.408;2023-04-10T15:56:35;12.07;;;7.35;;
1412;SDS011;701;52.526;13.408;2023-04-10T15:59:01;22.93;;;7.40;;
1412;SDS011;701;52.526;13.408;2023-04-10T16:01:26;11.30;;;6.80;;
1412;SDS011;701;52.526;13.408;2023-04-10T16:03:52;11.43;;;6.37;;
1412;SDS011;701;52.526;13.408;2023-04-10T16:06:18;12.63;;;6.47;;
1412;SDS011;701;52.526;13.408;2023-04-10T16:08:44;14.13;;;6.40;;
1412;SDS011;701;52.526;13.408;2023-04-10T16:11:09;14.13;;;6.70;;
1412;SDS011;701;52.526;13.408;2023-04-10T16:13:35;13.30;;;7.07;;